createdAt,value
2022-12-15T00:02:17.395Z,-4.10
2022-12-15T00:05:02.856Z,-4.20
2022-12-15T00:07:49.614Z,-4.20
2022-12-15T00:10:35.502Z,-4.10
2022-12-15T00:13:21.119Z,-4.00
2022-12-15T00:16:06.641Z,-4.10
2022-12-15T00:18:52.550Z,-3.90
2022-12-15T00:21:38.062Z,-3.70
2022-12-15T00:24:25.131Z,-4.00
2022-12-15T00:27:10.780Z,-4.00
2022-12-15T00:29:56.405Z,-4.00
2022-12-15T00:32:41.813Z,-4.00
2022-12-15T00:35:27.625Z,-4.10
2022-12-15T00:38:13.197Z,-4.10
2022-12-15T00:40:42.570Z,-4.10
2022-12-15T00:43:12.051Z,-4.20
2022-12-15T00:45:58.028Z,-4.10
2022-12-15T00:48:26.065Z,-4.10
2022-12-15T00:50:53.076Z,-4.00
2022-12-15T00:53:39.165Z,-4.10
2022-12-15T00:56:26.552Z,-3.90
2022-12-15T00:59:12.205Z,-3.80
2022-12-15T01:01:58.128Z,-4.00
2022-12-15T01:04:43.771Z,-4.10
2022-12-15T01:07:30.104Z,-4.10
2022-12-15T01:10:15.532Z,-3.90
2022-12-15T01:13:02.545Z,-4.00
2022-12-15T01:15:48.038Z,-4.00
2022-12-15T01:18:33.928Z,-4.20
2022-12-15T01:21:04.808Z,-3.90
2022-12-15T01:23:34.123Z,-4.00
2022-12-15T01:26:02.604Z,-4.10
2022-12-15T01:28:32.361Z,-3.80
2022-12-15T01:31:00.455Z,-3.90
2022-12-15T01:33:28.762Z,-3.80
2022-12-15T01:35:58.538Z,-3.40
2022-12-15T01:38:27.812Z,-3.70
2022-12-15T01:40:57.477Z,-3.60
2022-12-15T01:43:28.530Z,-3.70
2022-12-15T01:46:04.655Z,-3.80
2022-12-15T01:48:44.097Z,-3.70
2022-12-15T01:51:17.118Z,-3.70
2022-12-15T01:53:50.173Z,-3.70
2022-12-15T01:56:18.721Z,-3.70
2022-12-15T01:58:50.324Z,-3.90
2022-12-15T02:01:19.871Z,-3.90
2022-12-15T02:03:49.212Z,-4.00
2022-12-15T02:06:21.540Z,-3.60
2022-12-15T02:08:52.426Z,-3.80
2022-12-15T02:11:45.666Z,-3.90
2022-12-15T02:14:21.487Z,-4.00
2022-12-15T02:17:07.722Z,-4.00
2022-12-15T02:20:06.690Z,-4.00
2022-12-15T02:22:52.662Z,-4.00
2022-12-15T02:25:39.056Z,-4.00
2022-12-15T02:28:11.417Z,-4.00
2022-12-15T02:31:11.463Z,-4.00
2022-12-15T02:33:45.711Z,-4.00
2022-12-15T02:36:19.347Z,-4.00
2022-12-15T02:38:47.344Z,-4.00
2022-12-15T02:41:37.643Z,-4.10
2022-12-15T02:44:11.252Z,-4.10
2022-12-15T02:46:49.388Z,-4.10
2022-12-15T02:49:29.569Z,-3.90
2022-12-15T02:52:10.331Z,-4.00
2022-12-15T02:54:58.282Z,-4.00
2022-12-15T02:57:33.882Z,-4.00
2022-12-15T03:00:23.736Z,-3.90
2022-12-15T03:02:55.324Z,-3.90
2022-12-15T03:05:25.245Z,-4.10
2022-12-15T03:07:54.965Z,-4.00
2022-12-15T03:10:25.968Z,-4.00
2022-12-15T03:12:54.865Z,-4.10
2022-12-15T03:15:23.093Z,-4.10
2022-12-15T03:17:52.460Z,-4.10
2022-12-15T03:20:20.671Z,-4.00
2022-12-15T03:22:48.672Z,-4.00
2022-12-15T03:25:16.877Z,-3.90
2022-12-15T03:27:47.342Z,-4.00
2022-12-15T03:30:15.903Z,-4.10
2022-12-15T03:32:43.971Z,-4.00
2022-12-15T03:35:13.925Z,-4.00
2022-12-15T03:37:42.856Z,-4.10
2022-12-15T03:40:13.766Z,-4.10
2022-12-15T03:42:50.612Z,-4.10
2022-12-15T03:45:19.641Z,-4.10
2022-12-15T03:47:48.011Z,-4.00
2022-12-15T03:50:19.435Z,-4.10
2022-12-15T03:52:52.200Z,-4.10
2022-12-15T03:55:21.053Z,-4.10
2022-12-15T03:57:49.392Z,-4.10
2022-12-15T04:00:19.080Z,-4.10
2022-12-15T04:02:50.378Z,-4.10
2022-12-15T04:05:22.065Z,-4.10
2022-12-15T04:07:50.355Z,-4.10
2022-12-15T04:10:18.762Z,-4.10
2022-12-15T04:12:46.964Z,-4.10
2022-12-15T04:15:15.050Z,-3.90
2022-12-15T04:17:43.257Z,-4.00
2022-12-15T04:20:12.067Z,-3.90
2022-12-15T04:22:43.533Z,-4.00
2022-12-15T04:25:31.367Z,-4.00
2022-12-15T04:28:16.959Z,-4.10
2022-12-15T04:31:06.856Z,-4.00
2022-12-15T04:33:52.602Z,-4.10
2022-12-15T04:36:38.317Z,-4.00
2022-12-15T04:39:25.160Z,-4.00
2022-12-15T04:42:12.530Z,-4.10
2022-12-15T04:44:58.429Z,-4.10
2022-12-15T04:47:43.705Z,-4.00
2022-12-15T04:50:29.442Z,-3.80
2022-12-15T04:53:24.597Z,-3.90
2022-12-15T04:56:18.053Z,-3.90
2022-12-15T04:59:04.608Z,-3.80
2022-12-15T05:01:50.343Z,-3.80
2022-12-15T05:04:35.761Z,-3.90
2022-12-15T05:07:21.152Z,-4.00
2022-12-15T05:10:12.684Z,-3.80
2022-12-15T05:13:02.094Z,-4.00
2022-12-15T05:15:48.034Z,-3.90
2022-12-15T05:18:33.512Z,-3.90
2022-12-15T05:21:19.535Z,-3.90
2022-12-15T05:24:05.146Z,-3.90
2022-12-15T05:26:52.950Z,-3.90
2022-12-15T05:29:40.793Z,-3.90
2022-12-15T05:32:09.210Z,-3.90
2022-12-15T05:34:37.752Z,-3.80
2022-12-15T05:37:06.924Z,-3.90
2022-12-15T05:39:35.136Z,-3.70
2022-12-15T05:42:03.201Z,-3.80
2022-12-15T05:44:32.593Z,-3.70
2022-12-15T05:47:00.604Z,-3.80
2022-12-15T05:49:28.625Z,-3.90
2022-12-15T05:51:57.260Z,-3.90
2022-12-15T05:54:25.570Z,-3.90
2022-12-15T05:56:53.966Z,-3.90
2022-12-15T05:59:23.246Z,-3.80
2022-12-15T06:01:52.705Z,-3.80
2022-12-15T06:04:20.997Z,-3.80
2022-12-15T06:06:49.106Z,-3.80
2022-12-15T06:09:17.182Z,-3.90
2022-12-15T06:11:45.543Z,-3.80
2022-12-15T06:14:13.646Z,-3.80
2022-12-15T06:16:51.025Z,-3.90
2022-12-15T06:19:21.171Z,-4.00
2022-12-15T06:21:49.265Z,-3.80
2022-12-15T06:24:17.348Z,-3.80
2022-12-15T06:26:45.407Z,-3.90
2022-12-15T06:29:15.541Z,-3.90
2022-12-15T06:31:43.766Z,-3.90
2022-12-15T06:34:14.146Z,-3.80
2022-12-15T06:36:43.998Z,-3.90
2022-12-15T06:39:13.657Z,-3.80
2022-12-15T06:41:41.921Z,-3.60
2022-12-15T06:44:14.231Z,-3.70
2022-12-15T06:46:42.920Z,-3.80
2022-12-15T06:49:11.091Z,-3.90
2022-12-15T06:51:39.280Z,-3.80
2022-12-15T06:54:11.147Z,-3.80
2022-12-15T06:56:39.985Z,-3.70
2022-12-15T06:59:08.977Z,-3.80
2022-12-15T07:01:37.418Z,-3.60
2022-12-15T07:04:06.272Z,-3.70
2022-12-15T07:06:37.457Z,-3.70
2022-12-15T07:09:10.408Z,-3.70
2022-12-15T07:11:38.593Z,-3.80
2022-12-15T07:14:06.629Z,-3.60
2022-12-15T07:16:34.828Z,-3.50
2022-12-15T07:19:03.462Z,-3.70
2022-12-15T07:21:31.478Z,-3.70
2022-12-15T07:24:00.611Z,-3.80
2022-12-15T07:26:30.746Z,-3.60
2022-12-15T07:28:58.751Z,-3.70
2022-12-15T07:31:27.124Z,-3.60
2022-12-15T07:33:55.244Z,-3.50
2022-12-15T07:36:23.462Z,-3.50
2022-12-15T07:38:52.278Z,-3.50
2022-12-15T07:41:21.453Z,-3.60
2022-12-15T07:43:50.872Z,-3.60
2022-12-15T07:46:19.445Z,-3.60
2022-12-15T07:48:48.298Z,-3.60
2022-12-15T07:51:20.909Z,-3.60
2022-12-15T07:53:50.538Z,-3.50
2022-12-15T07:56:19.531Z,-3.30
2022-12-15T07:58:47.926Z,-3.10
2022-12-15T08:01:17.898Z,-3.20
2022-12-15T08:03:46.305Z,-3.20
2022-12-15T08:06:15.735Z,-3.20
2022-12-15T08:08:50.583Z,-3.20
2022-12-15T08:11:20.804Z,-3.10
2022-12-15T08:14:09.236Z,-3.20
2022-12-15T08:16:39.527Z,-3.00
2022-12-15T08:19:10.211Z,-3.10
2022-12-15T08:21:40.588Z,-3.10
2022-12-15T08:24:09.506Z,-3.10
2022-12-15T08:26:38.804Z,-3.10
2022-12-15T08:31:58.423Z,-3.00
2022-12-15T08:34:26.532Z,-3.00
2022-12-15T08:36:55.464Z,-3.00
2022-12-15T08:39:23.531Z,-3.00
2022-12-15T08:41:51.657Z,-2.90
2022-12-15T08:44:19.890Z,-2.90
2022-12-15T08:46:47.973Z,-2.90
2022-12-15T08:49:21.685Z,-2.70
2022-12-15T08:51:50.623Z,-2.80
2022-12-15T08:54:20.199Z,-2.70
2022-12-15T08:56:48.273Z,-2.60
2022-12-15T08:59:16.356Z,-2.50
2022-12-15T09:01:44.461Z,-2.20
2022-12-15T09:04:12.714Z,-2.20
2022-12-15T09:06:42.428Z,-2.20
2022-12-15T09:09:13.993Z,-2.30
2022-12-15T09:11:42.065Z,-2.20
2022-12-15T09:14:10.258Z,-2.00
2022-12-15T09:16:38.415Z,-2.10
2022-12-15T09:19:07.222Z,-2.00
2022-12-15T09:21:35.609Z,-2.00
2022-12-15T09:24:05.762Z,-1.90
2022-12-15T09:26:35.441Z,-2.00
2022-12-15T09:29:03.970Z,-2.10
2022-12-15T09:31:34.201Z,-2.10
2022-12-15T09:34:03.818Z,-2.20
2022-12-15T09:36:33.386Z,-2.00
2022-12-15T09:39:03.177Z,-2.10
2022-12-15T09:41:34.291Z,-2.10
2022-12-15T09:44:05.445Z,-1.90
2022-12-15T09:46:49.967Z,-1.50
2022-12-15T09:49:32.281Z,-1.60
2022-12-15T09:52:10.757Z,-1.70
2022-12-15T09:54:41.768Z,-1.80
2022-12-15T09:57:18.494Z,-1.80
2022-12-15T09:59:58.727Z,-1.80
2022-12-15T10:02:52.751Z,-1.70
2022-12-15T10:08:31.925Z,-1.50
2022-12-15T10:11:01.719Z,-1.50
2022-12-15T10:13:39.849Z,-1.20
2022-12-15T10:16:19.529Z,-1.40
2022-12-15T10:19:01.711Z,-1.20
2022-12-15T10:21:32.611Z,-1.10
2022-12-15T10:24:12.120Z,-1.00
2022-12-15T10:26:42.320Z,-0.80
2022-12-15T10:29:25.806Z,-0.80
2022-12-15T10:31:56.516Z,-0.80
2022-12-15T10:34:28.673Z,-0.80
2022-12-15T10:36:57.971Z,-0.80
2022-12-15T10:39:39.113Z,-0.80
2022-12-15T10:42:13.825Z,-0.80
2022-12-15T10:44:45.389Z,-0.80
2022-12-15T10:47:22.658Z,-0.70
2022-12-15T10:49:51.239Z,-0.70
2022-12-15T10:52:27.344Z,-0.70
2022-12-15T10:54:56.293Z,-0.80
2022-12-15T10:57:28.798Z,-0.90
2022-12-15T11:00:27.529Z,-0.90
2022-12-15T11:02:55.915Z,-0.90
2022-12-15T11:05:24.073Z,-0.80
2022-12-15T11:07:53.975Z,-0.80
2022-12-15T11:10:24.841Z,-0.60
2022-12-15T11:12:59.612Z,-0.50
2022-12-15T11:15:45.275Z,-0.50
2022-12-15T11:18:37.546Z,-0.30
2022-12-15T11:21:12.086Z,-0.30
2022-12-15T11:23:51.678Z,-0.20
2022-12-15T11:26:30.313Z,0.00
2022-12-15T11:29:02.895Z,0.20
2022-12-15T11:31:38.778Z,0.30
2022-12-15T11:34:14.119Z,0.40
2022-12-15T11:37:01.370Z,0.40
2022-12-15T11:39:40.997Z,0.40
2022-12-15T11:42:15.942Z,0.40
2022-12-15T11:44:50.490Z,0.50
2022-12-15T11:47:27.614Z,0.50
2022-12-15T11:50:17.945Z,0.40
2022-12-15T11:53:02.009Z,0.30
2022-12-15T11:55:41.379Z,0.30
2022-12-15T11:59:16.949Z,0.30
2022-12-15T12:02:03.198Z,0.30
2022-12-15T12:04:43.291Z,0.30
2022-12-15T12:07:19.193Z,0.40
2022-12-15T12:09:57.371Z,0.50
2022-12-15T12:12:31.722Z,0.50
2022-12-15T12:15:19.723Z,0.50
2022-12-15T12:17:51.816Z,0.50
2022-12-15T12:20:24.888Z,0.50
2022-12-15T12:23:02.301Z,0.60
2022-12-15T12:25:33.086Z,0.50
2022-12-15T12:28:04.041Z,0.60
2022-12-15T12:30:39.750Z,0.60
2022-12-15T12:33:17.278Z,0.70
2022-12-15T12:35:52.547Z,0.60
2022-12-15T12:38:25.966Z,0.70
2022-12-15T12:41:03.901Z,0.80
2022-12-15T12:43:35.174Z,0.80
2022-12-15T12:46:10.219Z,0.90
2022-12-15T12:48:42.443Z,0.90
2022-12-15T12:51:27.427Z,0.90
2022-12-15T12:53:56.196Z,0.90
2022-12-15T12:56:32.477Z,1.00
2022-12-15T12:59:00.881Z,0.90
2022-12-15T13:01:34.168Z,1.00
2022-12-15T13:04:13.852Z,1.00
2022-12-15T13:07:03.151Z,1.00
2022-12-15T13:10:02.803Z,1.10
2022-12-15T13:12:53.497Z,1.10
2022-12-15T13:15:37.271Z,1.10
2022-12-15T13:18:12.541Z,1.10
2022-12-15T13:20:42.004Z,1.20
2022-12-15T13:23:41.181Z,1.20
2022-12-15T13:26:19.054Z,1.10
2022-12-15T13:28:51.611Z,1.20
2022-12-15T13:31:36.860Z,1.20
2022-12-15T13:34:21.318Z,1.30
2022-12-15T13:36:57.749Z,1.30
2022-12-15T13:40:00.305Z,1.20
2022-12-15T13:42:35.053Z,1.30
2022-12-15T13:45:44.275Z,1.40
2022-12-15T13:48:31.508Z,1.40
2022-12-15T13:51:06.913Z,1.40
2022-12-15T13:53:41.608Z,1.60
2022-12-15T13:56:40.002Z,1.60
2022-12-15T13:59:17.295Z,1.50
2022-12-15T14:01:51.432Z,1.50
2022-12-15T14:04:21.453Z,1.40
2022-12-15T14:06:52.879Z,1.40
2022-12-15T14:09:25.325Z,1.50
2022-12-15T14:11:55.063Z,1.40
2022-12-15T14:14:28.943Z,1.40
2022-12-15T14:17:00.436Z,1.40
2022-12-15T14:19:38.684Z,1.40
2022-12-15T14:22:28.133Z,1.40
2022-12-15T14:25:03.297Z,1.60
2022-12-15T14:27:34.837Z,1.70
2022-12-15T14:30:14.133Z,1.60
2022-12-15T14:32:45.839Z,1.60
2022-12-15T14:35:15.937Z,1.60
2022-12-15T14:37:44.232Z,1.50
2022-12-15T14:40:16.841Z,1.60
2022-12-15T14:42:47.302Z,1.60
2022-12-15T14:45:20.934Z,1.60
2022-12-15T14:48:13.485Z,1.60
2022-12-15T14:50:47.983Z,1.60
2022-12-15T14:53:18.194Z,1.50
2022-12-15T14:55:46.333Z,1.50
2022-12-15T14:58:34.021Z,1.40
2022-12-15T15:01:03.802Z,1.50
2022-12-15T15:03:11.750Z,-1.60
2022-12-15T15:03:38.220Z,1.50
2022-12-15T15:06:15.699Z,1.60
2022-12-15T15:08:47.075Z,1.40
2022-12-15T15:11:26.896Z,1.40
2022-12-15T15:13:59.024Z,1.40
2022-12-15T15:16:27.659Z,1.30
2022-12-15T15:18:57.254Z,1.30
2022-12-15T15:21:27.961Z,1.30
2022-12-15T15:24:00.490Z,1.30
2022-12-15T15:26:29.838Z,1.20
2022-12-15T15:28:59.494Z,1.20
2022-12-15T15:31:36.790Z,1.20
2022-12-15T15:34:08.236Z,1.20
2022-12-15T15:36:38.652Z,1.10
2022-12-15T15:39:13.937Z,1.10
2022-12-15T15:41:42.554Z,1.00
2022-12-15T15:44:15.165Z,0.90
2022-12-15T15:46:48.364Z,0.90
2022-12-15T15:49:20.551Z,0.80
2022-12-15T15:51:48.920Z,0.80
2022-12-15T15:54:21.107Z,0.70
2022-12-15T15:56:49.125Z,0.70
2022-12-15T15:59:21.706Z,0.60
2022-12-15T16:01:54.370Z,0.70
2022-12-15T16:04:22.679Z,0.60
2022-12-15T16:06:51.044Z,0.70
2022-12-15T16:09:19.107Z,0.60
2022-12-15T16:11:48.250Z,0.50
2022-12-15T16:14:19.427Z,0.50
2022-12-15T16:16:47.454Z,0.60
2022-12-15T16:19:15.474Z,0.60
2022-12-15T16:21:44.120Z,0.50
2022-12-15T16:24:16.663Z,0.40
2022-12-15T16:26:48.758Z,0.40
2022-12-15T16:29:20.070Z,0.40
2022-12-15T16:31:48.770Z,0.40
2022-12-15T16:34:19.052Z,0.40
2022-12-15T16:36:47.548Z,0.30
2022-12-15T16:39:26.759Z,0.30
2022-12-15T16:41:56.339Z,0.30
2022-12-15T16:44:27.031Z,0.20
2022-12-15T16:46:55.260Z,0.20
2022-12-15T16:49:23.674Z,0.20
2022-12-15T16:51:53.446Z,0.20
2022-12-15T16:54:24.195Z,0.20
2022-12-15T16:56:53.135Z,0.40
2022-12-15T16:59:38.916Z,0.30
2022-12-15T17:02:24.980Z,0.40
2022-12-15T17:04:55.117Z,0.40
2022-12-15T17:07:23.817Z,0.40
2022-12-15T17:09:52.219Z,0.40
2022-12-15T17:12:20.292Z,0.50
2022-12-15T17:14:48.414Z,0.40
2022-12-15T17:17:19.917Z,0.30
2022-12-15T17:20:19.855Z,0.30
2022-12-15T17:22:37.745Z,0.40
2022-12-15T17:25:06.617Z,0.40
2022-12-15T17:27:34.649Z,0.40
2022-12-15T17:30:03.034Z,0.30
2022-12-15T17:32:32.508Z,0.40
2022-12-15T17:35:00.640Z,0.40
2022-12-15T17:37:34.888Z,0.30
2022-12-15T17:40:03.946Z,0.30
2022-12-15T17:42:31.922Z,0.30
2022-12-15T17:45:00.016Z,0.20
2022-12-15T17:47:30.344Z,0.20
2022-12-15T17:49:59.760Z,0.30
2022-12-15T17:52:30.162Z,0.20
2022-12-15T17:54:58.420Z,0.30
2022-12-15T17:57:26.632Z,0.20
2022-12-15T17:59:54.778Z,0.20
2022-12-15T18:02:22.913Z,0.20
2022-12-15T18:04:51.020Z,0.20
2022-12-15T18:07:23.585Z,0.20
2022-12-15T18:09:52.653Z,0.20
2022-12-15T18:12:22.178Z,0.20
2022-12-15T18:14:50.786Z,0.20
2022-12-15T18:17:18.958Z,0.20
2022-12-15T18:19:47.060Z,0.20
2022-12-15T18:22:18.984Z,0.20
2022-12-15T18:24:48.485Z,0.10
2022-12-15T18:27:23.297Z,0.10
2022-12-15T18:29:51.676Z,0.20
2022-12-15T18:32:21.583Z,0.10
2022-12-15T18:34:50.496Z,0.00
2022-12-15T18:37:19.912Z,0.00
2022-12-15T18:39:50.480Z,0.10
2022-12-15T18:42:20.220Z,0.00
2022-12-15T18:44:50.766Z,-0.10
2022-12-15T18:47:19.905Z,-0.10
2022-12-15T18:49:48.229Z,0.00
2022-12-15T18:52:18.883Z,-0.10
2022-12-15T18:54:49.760Z,-0.10
2022-12-15T18:57:30.901Z,-0.20
2022-12-15T19:00:00.580Z,-0.20
2022-12-15T19:02:28.776Z,-0.30
2022-12-15T19:04:57.195Z,-0.30
2022-12-15T19:07:25.345Z,-0.30
2022-12-15T19:09:55.247Z,-0.30
2022-12-15T19:12:23.386Z,-0.30
2022-12-15T19:14:55.103Z,-0.40
2022-12-15T19:17:42.229Z,-0.40
2022-12-15T19:20:31.223Z,-0.40
2022-12-15T19:22:59.449Z,-0.40
2022-12-15T19:25:30.420Z,-0.50
2022-12-15T19:28:00.031Z,-0.50
2022-12-15T19:30:30.263Z,-0.50
2022-12-15T19:32:59.522Z,-0.50
2022-12-15T19:35:29.181Z,-0.50
2022-12-15T19:37:59.469Z,-0.50
2022-12-15T19:40:32.319Z,-0.40
2022-12-15T19:43:01.097Z,-0.50
2022-12-15T19:45:30.877Z,-0.50
2022-12-15T19:47:59.517Z,-0.30
2022-12-15T19:50:31.357Z,-0.40
2022-12-15T19:53:01.946Z,-0.50
2022-12-15T19:55:33.963Z,-0.50
2022-12-15T19:58:06.633Z,-0.60
2022-12-15T20:00:34.664Z,-0.60
2022-12-15T20:03:02.720Z,-0.60
2022-12-15T20:05:30.894Z,-0.60
2022-12-15T20:07:58.871Z,-0.60
2022-12-15T20:10:32.248Z,-0.60
2022-12-15T20:13:03.240Z,-0.60
2022-12-15T20:15:31.269Z,-0.60
2022-12-15T20:17:59.813Z,-0.70
2022-12-15T20:20:29.826Z,-0.60
2022-12-15T20:23:02.496Z,-0.50
2022-12-15T20:25:34.275Z,-0.60
2022-12-15T20:28:04.555Z,-0.70
2022-12-15T20:30:35.387Z,-0.70
2022-12-15T20:33:05.369Z,-0.70
2022-12-15T20:35:36.456Z,-0.60
2022-12-15T20:38:23.982Z,-0.70
2022-12-15T20:40:52.162Z,-0.70
2022-12-15T20:43:22.877Z,-0.70
2022-12-15T20:45:58.893Z,-0.70
2022-12-15T20:48:27.025Z,-0.70
2022-12-15T20:50:55.019Z,-0.70
2022-12-15T20:53:25.809Z,-0.80
2022-12-15T20:55:55.881Z,-0.80
2022-12-15T20:58:32.609Z,-0.70
2022-12-15T21:01:01.398Z,-0.60
2022-12-15T21:03:33.934Z,-0.60
2022-12-15T21:06:02.370Z,-0.70
2022-12-15T21:08:32.449Z,-0.70
2022-12-15T21:11:03.324Z,-0.80
2022-12-15T21:13:35.405Z,-0.80
2022-12-15T21:16:03.723Z,-0.80
2022-12-15T21:21:28.063Z,-0.70
2022-12-15T21:23:56.651Z,-0.50
2022-12-15T21:26:25.830Z,-0.60
2022-12-15T21:28:56.884Z,-0.80
2022-12-15T21:31:25.079Z,-0.80
2022-12-15T21:33:53.323Z,-0.80
2022-12-15T21:36:23.104Z,-0.90
2022-12-15T21:38:53.003Z,-0.90
2022-12-15T21:41:24.611Z,-1.00
2022-12-15T21:43:52.699Z,-1.00
2022-12-15T21:49:18.707Z,-1.00
2022-12-15T21:51:49.559Z,-1.00
2022-12-15T21:54:24.772Z,-1.00
2022-12-15T21:56:55.517Z,-1.10
2022-12-15T21:59:25.333Z,-1.10
2022-12-15T22:01:56.064Z,-1.10
2022-12-15T22:04:27.586Z,-0.80
2022-12-15T22:06:55.639Z,-0.80
2022-12-15T22:09:23.634Z,-0.80
2022-12-15T22:11:54.687Z,-1.00
2022-12-15T22:14:26.630Z,-1.00
2022-12-15T22:16:56.762Z,-1.00
2022-12-15T22:19:25.016Z,-1.00
2022-12-15T22:21:53.076Z,-0.90
2022-12-15T22:24:21.339Z,-0.70
2022-12-15T22:26:49.356Z,-0.70
2022-12-15T22:29:20.625Z,-0.90
2022-12-15T22:31:49.473Z,-0.90
2022-12-15T22:34:20.436Z,-1.00
2022-12-15T22:36:48.942Z,-0.90
2022-12-15T22:39:16.993Z,-0.80
2022-12-15T22:41:47.199Z,-0.80
2022-12-15T22:44:18.112Z,-0.80
2022-12-15T22:46:46.507Z,-0.90
2022-12-15T22:49:19.149Z,-0.90
2022-12-15T22:51:47.443Z,-0.90
2022-12-15T22:54:19.090Z,-1.00
2022-12-15T22:56:49.688Z,-0.90
2022-12-15T22:59:21.526Z,-0.90
2022-12-15T23:01:49.634Z,-0.90
2022-12-15T23:04:19.139Z,-1.00
2022-12-15T23:06:47.218Z,-1.00
2022-12-15T23:09:15.217Z,-1.00
2022-12-15T23:11:42.271Z,-1.00
2022-12-15T23:14:12.276Z,-0.90
2022-12-15T23:16:39.994Z,-1.00
2022-12-15T23:19:08.820Z,-0.90
2022-12-15T23:21:38.299Z,-0.90
2022-12-15T23:24:06.812Z,-0.90
2022-12-15T23:26:34.808Z,-0.90
2022-12-15T23:29:03.295Z,-0.90
2022-12-15T23:31:31.566Z,-0.80
2022-12-15T23:33:59.602Z,-0.80
2022-12-15T23:36:28.337Z,-0.90
2022-12-15T23:38:58.205Z,-0.90
2022-12-15T23:41:26.645Z,-0.90
2022-12-15T23:43:55.021Z,-0.90
2022-12-15T23:46:23.171Z,-0.90
2022-12-15T23:48:51.971Z,-0.70
2022-12-15T23:51:21.489Z,-0.80
2022-12-15T23:53:49.920Z,-0.80
2022-12-15T23:56:23.168Z,-0.90
2022-12-15T23:58:56.185Z,-0.80
